Time;durP1;ratioP1;P1;durP2;ratioP2;P2;SDS_P1;SDS_P2;PMS_P1;PMS_P2;Temp;Humidity;BMP_temperature;BMP_pressure;BME280_temperature;BME280_humidity;BME280_pressure;Samples;Min_cycle;Max_cycle;Signal;HPM_P1;HPM_P2
2022/02/25 00:00:59;;;;;;;34.50;22.27;;;;;;;0.97;100.00;98681.63;2075283;28;20219;-74
2022/02/25 00:02:03;;;;;;;26.65;20.33;;;;;;;1.00;100.00;98683.75;2082777;28;20211;-74
2022/02/25 00:03:06;;;;;;;38.45;21.23;;;;;;;1.00;100.00;98683.75;2082719;28;20203;-74
2022/02/25 00:04:12;;;;;;;28.13;20.27;;;;;;;0.98;100.00;98694.53;2082739;28;20637;-74
2022/02/25 00:05:15;;;;;;;28.65;21.10;;;;;;;0.96;100.00;98682.69;2082896;28;20249;-74
2022/02/25 00:06:19;;;;;;;32.70;19.52;;;;;;;0.99;100.00;98679.56;2082297;28;20311;-74
2022/02/25 00:07:22;;;;;;;27.50;19.55;;;;;;;1.00;100.00;98681.94;2082810;28;20203;-74
2022/02/25 00:08:28;;;;;;;22.90;18.33;;;;;;;1.06;100.00;98680.97;2082526;28;20705;-74
2022/02/25 00:09:30;;;;;;;26.52;18.50;;;;;;;1.15;100.00;98677.94;2083465;28;20181;-74
2022/02/25 00:10:34;;;;;;;23.70;18.45;;;;;;;1.19;100.00;98686.88;2082620;28;20195;-74
2022/02/25 00:11:39;;;;;;;20.23;17.77;;;;;;;1.26;100.00;98682.25;2075139;28;20216;-73
2022/02/25 00:12:40;;;;;;;22.02;18.00;;;;;;;1.31;100.00;98679.69;2082735;28;20684;-74
2022/02/25 00:13:46;;;;;;;30.77;21.43;;;;;;;1.37;100.00;98690.00;2083188;28;20560;-74
2022/02/25 00:14:48;;;;;;;20.33;18.15;;;;;;;1.39;100.00;98682.69;2082794;28;20454;-74
2022/02/25 00:15:57;;;;;;;29.15;20.00;;;;;;;1.44;100.00;98676.69;2074642;28;20192;-74
2022/02/25 00:16:59;;;;;;;27.95;19.00;;;;;;;1.50;100.00;98674.91;2082798;28;20721;-74
2022/02/25 00:18:02;;;;;;;26.13;19.88;;;;;;;1.50;100.00;98680.97;2083205;28;20199;-74
2022/02/25 00:19:06;;;;;;;24.08;19.98;;;;;;;1.50;100.00;98678.34;2082380;28;20224;-74
2022/02/25 00:20:12;;;;;;;30.50;20.65;;;;;;;1.49;100.00;98676.75;2082518;28;20187;-74
2022/02/25 00:21:15;;;;;;;40.72;20.33;;;;;;;1.48;100.00;98677.81;2081865;28;20231;-74
2022/02/25 00:22:18;;;;;;;26.85;19.40;;;;;;;1.46;100.00;98682.47;2082706;28;20234;-74
2022/02/25 00:23:22;;;;;;;29.30;19.88;;;;;;;1.45;100.00;98672.22;2083147;28;20187;-74
2022/02/25 00:24:25;;;;;;;28.02;18.67;;;;;;;1.42;100.00;98665.63;2083289;28;20192;-74
2022/02/25 00:25:28;;;;;;;28.13;20.88;;;;;;;1.43;100.00;98672.47;2083196;28;20234;-74
2022/02/25 00:26:32;;;;;;;23.15;18.98;;;;;;;1.44;100.00;98671.44;2082725;28;20207;-74
2022/02/25 00:27:39;;;;;;;23.30;19.23;;;;;;;1.42;100.00;98670.88;2075238;28;20204;-74
2022/02/25 00:28:40;;;;;;;24.92;18.80;;;;;;;1.42;100.00;98663.78;2075169;28;20199;-74
2022/02/25 00:29:44;;;;;;;24.57;19.57;;;;;;;1.43;100.00;98669.84;2074380;28;20717;-74
2022/02/25 00:30:51;;;;;;;26.70;19.80;;;;;;;1.40;100.00;98668.50;2082754;28;20465;-74
2022/02/25 00:31:58;;;;;;;20.05;17.88;;;;;;;1.42;100.00;98668.25;2090473;28;20226;-74
2022/02/25 00:32:59;;;;;;;32.20;20.35;;;;;;;1.42;100.00;98655.91;2082728;28;20238;-74
2022/02/25 00:34:02;;;;;;;22.57;18.47;;;;;;;1.45;100.00;98659.09;2082185;28;20395;-74
2022/02/25 00:35:04;;;;;;;29.92;20.45;;;;;;;1.42;100.00;98663.78;2074604;28;20303;-73
2022/02/25 00:36:06;;;;;;;23.77;19.80;;;;;;;1.42;100.00;98658.53;2074161;28;20243;-74
2022/02/25 00:37:10;;;;;;;31.25;21.05;;;;;;;1.39;100.00;98652.97;2082833;28;20176;-74
2022/02/25 00:38:13;;;;;;;26.75;20.98;;;;;;;1.35;100.00;98662.38;2083247;28;20347;-74
2022/02/25 00:39:14;;;;;;;26.75;22.02;;;;;;;1.32;100.00;98658.44;2082228;28;20223;-74
2022/02/25 00:40:18;;;;;;;29.15;19.80;;;;;;;1.30;100.00;98665.78;2082446;28;20230;-74
2022/02/25 00:41:20;;;;;;;30.27;23.30;;;;;;;1.29;100.00;98658.91;2082218;28;20199;-74
2022/02/25 00:42:24;;;;;;;35.17;22.35;;;;;;;1.29;100.00;98660.72;2081981;28;20203;-74
2022/02/25 00:43:25;;;;;;;25.52;19.80;;;;;;;1.27;100.00;98650.47;2082560;28;20191;-74
2022/02/25 00:44:28;;;;;;;23.13;20.67;;;;;;;1.27;100.00;98649.69;2083009;28;20275;-74
2022/02/25 00:45:30;;;;;;;27.35;20.08;;;;;;;1.35;100.00;98654.50;2082578;28;20265;-74
2022/02/25 00:46:36;;;;;;;26.55;19.50;;;;;;;1.41;100.00;98654.31;2074484;28;20760;-74
2022/02/25 00:47:45;;;;;;;23.83;20.08;;;;;;;1.57;100.00;98655.28;2082589;28;20651;-74
2022/02/25 00:48:49;;;;;;;23.85;19.42;;;;;;;1.63;100.00;98653.50;2083168;28;20188;-74
2022/02/25 00:49:51;;;;;;;20.17;18.20;;;;;;;1.74;100.00;98660.47;2082438;28;20294;-74
2022/02/25 00:50:51;;;;;;;20.92;17.65;;;;;;;1.84;100.00;98660.56;2081880;28;20227;-74
2022/02/25 00:51:56;;;;;;;19.53;17.73;;;;;;;1.95;100.00;98678.00;2090446;28;20199;-74
2022/02/25 00:53:01;;;;;;;18.65;16.83;;;;;;;2.09;100.00;98675.78;2090385;28;20190;-74
2022/02/25 00:54:03;;;;;;;18.58;16.90;;;;;;;2.22;100.00;98682.44;2082928;28;20594;-74
2022/02/25 00:55:08;;;;;;;19.55;17.55;;;;;;;2.41;100.00;98680.22;2082505;28;20246;-74
2022/02/25 00:56:12;;;;;;;20.15;18.23;;;;;;;2.53;100.00;98681.66;2082300;28;20192;-74
2022/02/25 00:57:14;;;;;;;19.10;17.30;;;;;;;2.58;100.00;98670.34;2082894;28;20219;-74
2022/02/25 00:58:16;;;;;;;21.15;18.13;;;;;;;2.65;100.00;98678.84;2083078;28;20202;-74
2022/02/25 00:59:18;;;;;;;17.90;16.40;;;;;;;2.66;100.00;98667.25;2082902;28;20212;-74
2022/02/25 01:00:20;;;;;;;19.10;17.30;;;;;;;2.74;100.00;98673.88;2083098;28;20226;-74
2022/02/25 01:01:25;;;;;;;18.85;17.05;;;;;;;2.83;100.00;98675.00;2083010;28;20187;-74
2022/02/25 01:02:28;;;;;;;18.42;16.65;;;;;;;2.91;100.00;98677.16;2082829;28;20207;-74
2022/02/25 01:03:32;;;;;;;18.85;17.05;;;;;;;3.06;100.00;98669.31;2082736;28;20187;-74
2022/02/25 01:04:33;;;;;;;18.67;17.08;;;;;;;3.16;100.00;98673.06;2082959;28;20234;-74
2022/02/25 01:05:36;;;;;;;19.07;17.37;;;;;;;3.21;100.00;98668.59;2082854;28;20246;-74
2022/02/25 01:06:38;;;;;;;19.38;17.60;;;;;;;3.27;100.00;98674.69;2082547;28;20454;-74
2022/02/25 01:07:41;;;;;;;19.00;17.20;;;;;;;3.28;99.76;98671.78;2090426;28;20770;-74
2022/02/25 01:08:46;;;;;;;20.45;18.30;;;;;;;3.31;99.39;98668.66;2090210;28;20202;-74
2022/02/25 01:09:48;;;;;;;20.30;18.50;;;;;;;3.33;99.38;98673.66;2082116;28;20765;-74
2022/02/25 01:10:49;;;;;;;20.38;18.60;;;;;;;3.36;98.43;98671.28;2082259;28;20188;-74
2022/02/25 01:11:51;;;;;;;19.70;17.83;;;;;;;3.37;98.25;98680.00;2090287;28;20206;-74
2022/02/25 01:12:58;;;;;;;20.35;18.63;;;;;;;3.43;97.81;98670.25;2082071;28;20208;-74
2022/02/25 01:14:00;;;;;;;19.67;17.73;;;;;;;3.46;97.86;98672.38;2083214;28;20199;-74
2022/02/25 01:15:04;;;;;;;20.48;18.67;;;;;;;3.46;97.91;98675.00;2082107;28;20203;-74
2022/02/25 01:16:07;;;;;;;21.05;18.77;;;;;;;3.46;97.06;98681.06;2082299;28;20255;-74
2022/02/25 01:17:14;;;;;;;19.73;17.92;;;;;;;3.46;97.41;98675.00;2082402;28;20199;-74
2022/02/25 01:18:16;;;;;;;18.73;17.05;;;;;;;3.44;97.29;98667.38;2074917;28;20208;-74
2022/02/25 01:19:22;;;;;;;21.02;18.83;;;;;;;3.43;98.59;98676.31;2082077;28;20208;-74
2022/02/25 01:20:26;;;;;;;20.40;18.30;;;;;;;3.39;99.57;98670.78;2082895;28;20263;-74
2022/02/25 01:21:30;;;;;;;20.92;18.73;;;;;;;3.36;100.00;98670.50;2089726;28;20214;-74
2022/02/25 01:22:32;;;;;;;21.92;19.02;;;;;;;3.31;100.00;98659.94;2090126;28;20282;-74
2022/02/25 01:23:35;;;;;;;20.25;18.30;;;;;;;3.29;100.00;98659.38;2090248;28;20187;-74
2022/02/25 01:24:39;;;;;;;23.50;19.08;;;;;;;3.25;100.00;98653.06;2081900;28;20203;-74
2022/02/25 01:25:45;;;;;;;22.17;19.30;;;;;;;3.23;100.00;98655.97;2082080;28;20184;-74
2022/02/25 01:26:48;;;;;;;21.77;19.48;;;;;;;3.21;100.00;98651.97;2081900;28;20720;-74
2022/02/25 01:27:51;;;;;;;21.58;19.33;;;;;;;3.19;100.00;98654.88;2082050;28;20192;-74
2022/02/25 01:28:55;;;;;;;21.25;19.02;;;;;;;3.19;100.00;98654.09;2082541;28;20196;-74
2022/02/25 01:29:58;;;;;;;21.50;19.00;;;;;;;3.16;100.00;98654.59;2082526;28;20227;-74
2022/02/25 01:31:02;;;;;;;23.80;18.77;;;;;;;3.17;100.00;98650.91;2081927;28;20206;-74
2022/02/25 01:32:06;;;;;;;24.35;19.75;;;;;;;3.15;100.00;98642.47;2082019;28;20191;-74
2022/02/25 01:33:08;;;;;;;21.25;19.15;;;;;;;3.13;100.00;98642.75;2082044;28;20603;-74
2022/02/25 01:34:11;;;;;;;23.17;19.42;;;;;;;3.10;100.00;98635.34;2082054;28;20192;-74
2022/02/25 01:35:15;;;;;;;25.70;20.35;;;;;;;3.05;100.00;98630.84;2082583;28;20195;-74
2022/02/25 01:36:16;;;;;;;22.88;20.45;;;;;;;3.02;100.00;98625.28;2082114;28;20639;-74
2022/02/25 01:37:19;;;;;;;23.85;20.23;;;;;;;3.00;100.00;98628.19;2081899;28;20191;-74
2022/02/25 01:38:22;;;;;;;22.52;20.23;;;;;;;2.95;100.00;98620.25;2081956;28;20671;-74
2022/02/25 01:39:24;;;;;;;25.90;19.75;;;;;;;2.92;100.00;98622.59;2082392;28;20235;-74
2022/02/25 01:40:27;;;;;;;24.58;20.38;;;;;;;2.84;100.00;98614.13;2082703;28;20199;-74
2022/02/25 01:41:31;;;;;;;22.52;20.13;;;;;;;2.82;100.00;98623.34;2082571;28;20191;-74
2022/02/25 01:42:43;;;;;;;23.73;20.25;;;;;;;2.77;100.00;98618.84;2081819;28;20218;-74
2022/02/25 01:43:46;;;;;;;25.75;19.80;;;;;;;2.72;100.00;98610.94;2082174;28;20558;-74
2022/02/25 01:44:51;;;;;;;25.23;20.48;;;;;;;2.69;100.00;98611.41;2082848;28;20168;-74
2022/02/25 01:45:58;;;;;;;29.85;20.40;;;;;;;2.68;100.00;98609.84;2082579;28;20588;-74
2022/02/25 01:47:03;;;;;;;22.88;20.52;;;;;;;2.62;100.00;98596.91;2082456;28;20730;-74
2022/02/25 01:48:08;;;;;;;25.00;20.30;;;;;;;2.59;100.00;98605.31;2082470;28;20665;-74
2022/02/25 01:49:11;;;;;;;21.60;19.40;;;;;;;2.53;100.00;98596.59;2082593;28;20192;-74
2022/02/25 01:50:14;;;;;;;27.67;21.00;;;;;;;2.47;100.00;98594.97;2082407;28;20537;-74
2022/02/25 01:51:18;;;;;;;24.13;20.20;;;;;;;2.42;100.00;98598.38;2081974;28;20222;-74
2022/02/25 01:52:20;;;;;;;29.85;20.77;;;;;;;2.38;100.00;98601.78;2082460;28;20259;-74
2022/02/25 01:53:23;;;;;;;23.83;20.58;;;;;;;2.32;100.00;98598.31;2082420;28;20353;-74
2022/02/25 01:54:27;;;;;;;29.38;20.95;;;;;;;2.31;100.00;98601.19;2082270;28;20275;-74
2022/02/25 01:55:29;;;;;;;22.35;20.20;;;;;;;2.26;100.00;98604.59;2081760;28;20241;-74
2022/02/25 01:56:31;;;;;;;23.40;20.35;;;;;;;2.21;100.00;98601.91;2081875;28;20230;-74
2022/02/25 01:57:37;;;;;;;22.95;19.55;;;;;;;2.19;100.00;98599.53;2081705;28;20215;-74
2022/02/25 01:58:39;;;;;;;22.08;19.83;;;;;;;2.19;100.00;98604.81;2081859;28;20260;-74
2022/02/25 01:59:44;;;;;;;22.95;20.17;;;;;;;2.18;100.00;98602.44;2082306;28;20215;-74
2022/02/25 02:00:46;;;;;;;22.00;19.80;;;;;;;2.16;100.00;98600.03;2082286;28;20229;-74
2022/02/25 02:01:49;;;;;;;26.23;20.02;;;;;;;2.17;100.00;98606.09;2081642;28;20199;-74
2022/02/25 02:02:51;;;;;;;20.40;18.33;;;;;;;2.17;100.00;98600.81;2081811;28;20199;-74
2022/02/25 02:03:55;;;;;;;28.27;19.70;;;;;;;2.18;100.00;98605.84;2082559;28;20226;-74
2022/02/25 02:04:55;;;;;;;25.15;19.67;;;;;;;2.16;100.00;98605.28;2082402;28;20192;-74
2022/02/25 02:06:01;;;;;;;22.67;19.30;;;;;;;2.15;100.00;98608.97;2082044;28;20183;-74
2022/02/25 02:07:02;;;;;;;24.35;20.10;;;;;;;2.14;100.00;98601.34;2082631;28;20179;-74
2022/02/25 02:08:06;;;;;;;21.50;19.30;;;;;;;2.13;100.00;98600.53;2081974;28;20200;-74
2022/02/25 02:09:09;;;;;;;26.13;20.00;;;;;;;2.17;100.00;98606.09;2081958;28;20229;-74
2022/02/25 02:10:12;;;;;;;25.63;20.42;;;;;;;2.13;100.00;98594.50;2082366;28;20667;-74
2022/02/25 02:11:26;;;;;;;22.98;18.60;;;;;;;2.11;100.00;98597.38;2082300;28;20653;-74
2022/02/25 02:12:30;;;;;;;22.20;19.80;;;;;;;2.11;100.00;98599.22;2082561;28;20266;-74
2022/02/25 02:13:33;;;;;;;22.40;19.05;;;;;;;2.13;100.00;98600.53;2082423;28;20578;-74
2022/02/25 02:14:36;;;;;;;24.80;19.70;;;;;;;2.16;100.00;98605.28;2082331;28;20555;-74
2022/02/25 02:15:39;;;;;;;20.40;18.50;;;;;;;2.18;100.00;98607.69;2082029;28;20702;-74
2022/02/25 02:16:42;;;;;;;20.80;18.67;;;;;;;2.25;100.00;98609.03;2081943;28;20649;-74
2022/02/25 02:17:46;;;;;;;19.05;17.52;;;;;;;2.26;100.00;98609.88;2081979;28;20565;-74
2022/02/25 02:18:49;;;;;;;19.77;17.80;;;;;;;2.34;100.00;98608.56;2081692;28;20195;-74
2022/02/25 02:19:52;;;;;;;20.67;18.50;;;;;;;2.41;100.00;98609.94;2081499;28;20223;-74
2022/02/25 02:20:54;;;;;;;19.17;17.38;;;;;;;2.46;100.00;98617.09;2081181;28;20226;-74
2022/02/25 02:22:01;;;;;;;20.42;18.42;;;;;;;2.48;100.00;98604.47;2082243;28;20218;-74
2022/02/25 02:23:05;;;;;;;20.67;17.83;;;;;;;2.53;100.00;98607.94;2081928;28;20204;-74
2022/02/25 02:24:07;;;;;;;18.52;16.80;;;;;;;2.64;100.00;98621.16;2081671;28;20188;-74
2022/02/25 02:25:11;;;;;;;22.25;19.27;;;;;;;2.66;100.00;98616.41;2082237;28;20195;-74
2022/02/25 02:26:13;;;;;;;19.63;17.60;;;;;;;2.67;100.00;98612.72;2081847;28;20250;-74
2022/02/25 02:27:16;;;;;;;18.77;17.33;;;;;;;2.69;100.00;98616.69;2081866;28;20191;-74
2022/02/25 02:28:18;;;;;;;18.85;17.33;;;;;;;2.69;100.00;98608.78;2089686;28;20202;-74
2022/02/25 02:29:24;;;;;;;20.73;18.60;;;;;;;2.70;100.00;98606.97;2089706;28;20257;-74
2022/02/25 02:30:28;;;;;;;20.25;18.30;;;;;;;2.69;100.00;98600.88;2081622;28;20257;-74
2022/02/25 02:31:33;;;;;;;22.92;19.42;;;;;;;2.70;100.00;98601.69;2073893;28;20203;-74
2022/02/25 02:32:36;;;;;;;20.00;18.10;;;;;;;2.67;100.00;98605.63;2074283;28;20246;-74
2022/02/25 02:33:40;;;;;;;20.92;18.85;;;;;;;2.64;100.00;98605.34;2081422;28;20269;-74
2022/02/25 02:34:44;;;;;;;21.48;19.25;;;;;;;2.58;100.00;98601.88;2082253;28;20215;-74
2022/02/25 02:35:49;;;;;;;21.98;19.25;;;;;;;2.53;100.00;98596.59;2082204;28;20609;-74
2022/02/25 02:36:49;;;;;;;23.00;18.88;;;;;;;2.46;100.00;98590.75;2081908;28;20216;-74
2022/02/25 02:37:54;;;;;;;21.00;18.57;;;;;;;2.40;100.00;98592.56;2081513;28;20257;-74
2022/02/25 02:39:00;;;;;;;20.75;18.50;;;;;;;2.38;100.00;98591.25;2074058;28;20508;-74
2022/02/25 02:40:06;;;;;;;19.27;17.15;;;;;;;2.37;100.00;98589.66;2073831;28;20220;-74
2022/02/25 02:41:08;;;;;;;24.00;19.52;;;;;;;2.33;100.00;98585.94;2081850;28;20168;-74
2022/02/25 02:42:12;;;;;;;21.30;19.02;;;;;;;2.32;100.00;98587.78;2082294;28;20192;-74
2022/02/25 02:43:15;;;;;;;19.77;18.15;;;;;;;2.31;100.00;98590.66;2081692;28;20207;-74
2022/02/25 02:44:17;;;;;;;22.30;20.00;;;;;;;2.32;100.00;98592.25;2081572;28;20192;-74
2022/02/25 02:45:18;;;;;;;25.30;19.00;;;;;;;2.28;100.00;98593.81;2082222;28;20199;-74
2022/02/25 02:46:23;;;;;;;20.50;18.30;;;;;;;2.27;100.00;98585.13;2082219;28;20656;-74
2022/02/25 02:47:26;;;;;;;25.55;20.05;;;;;;;2.26;100.00;98591.44;2081991;28;20206;-74
2022/02/25 02:48:28;;;;;;;22.27;19.60;;;;;;;2.22;100.00;98585.88;2082265;28;20190;-74
2022/02/25 02:49:31;;;;;;;22.92;19.33;;;;;;;2.24;100.00;98591.66;2082293;28;20235;-74
2022/02/25 02:50:34;;;;;;;29.40;20.40;;;;;;;2.24;100.00;98596.13;2082122;28;20559;-74
2022/02/25 02:51:38;;;;;;;30.00;21.92;;;;;;;2.30;100.00;98594.34;2081867;28;20223;-74
2022/02/25 02:52:41;;;;;;;28.00;22.50;;;;;;;2.34;100.00;98595.41;2081258;28;20302;-74
2022/02/25 02:53:45;;;;;;;36.55;24.35;;;;;;;2.43;100.00;98602.59;2081592;28;20211;-74
2022/02/25 02:54:49;;;;;;;34.25;21.95;;;;;;;2.46;100.00;98603.94;2082106;28;20553;-74
2022/02/25 02:55:51;;;;;;;31.50;22.80;;;;;;;2.46;100.00;98603.94;2082216;28;20199;-74
2022/02/25 02:56:52;;;;;;;26.33;21.30;;;;;;;2.49;100.00;98603.41;2081420;28;20223;-74
2022/02/25 02:57:55;;;;;;;25.87;20.60;;;;;;;2.49;100.00;98598.16;2081689;28;20196;-74
2022/02/25 02:58:59;;;;;;;22.80;19.25;;;;;;;2.50;100.00;98607.63;2082119;28;20479;-74
2022/02/25 03:00:02;;;;;;;29.98;22.58;;;;;;;2.52;100.00;98610.81;2081597;28;20247;-74
2022/02/25 03:01:06;;;;;;;26.42;21.55;;;;;;;2.55;100.00;98602.41;2081438;28;20206;-74
2022/02/25 03:02:13;;;;;;;22.25;19.80;;;;;;;2.56;100.00;98622.41;2082004;28;20279;-74
2022/02/25 03:03:19;;;;;;;27.23;22.30;;;;;;;2.55;100.00;98618.19;2082239;28;20187;-74
2022/02/25 03:04:23;;;;;;;27.70;21.25;;;;;;;2.55;100.00;98618.19;2081702;28;20728;-74
2022/02/25 03:05:27;;;;;;;30.42;21.70;;;;;;;2.54;100.00;98616.63;2081420;28;20199;-74
2022/02/25 03:06:29;;;;;;;32.95;23.02;;;;;;;2.48;100.00;98609.72;2082197;28;20812;-74
2022/02/25 03:07:33;;;;;;;31.42;21.95;;;;;;;2.45;100.00;98607.63;2083166;28;20199;-74
2022/02/25 03:08:38;;;;;;;33.13;23.48;;;;;;;2.42;100.00;98602.84;2090988;28;20190;-74
2022/02/25 03:09:42;;;;;;;32.63;23.50;;;;;;;2.36;100.00;98599.41;2083671;28;20219;-74
2022/02/25 03:10:46;;;;;;;38.13;24.50;;;;;;;2.36;100.00;98603.88;2083700;28;20192;-74
2022/02/25 03:11:51;;;;;;;27.20;21.40;;;;;;;2.32;100.00;98600.16;2083677;28;20223;-74
2022/02/25 03:12:53;;;;;;;35.15;23.23;;;;;;;2.28;100.00;98607.75;2083647;28;20195;-74
2022/02/25 03:13:59;;;;;;;35.33;24.52;;;;;;;2.23;100.00;98603.25;2082980;28;20199;-74
2022/02/25 03:15:01;;;;;;;39.20;24.17;;;;;;;2.25;100.00;98602.97;2083404;28;20176;-74
2022/02/25 03:16:03;;;;;;;39.58;23.60;;;;;;;2.24;100.00;98604.03;2083262;28;20203;-74
2022/02/25 03:17:11;;;;;;;40.67;23.98;;;;;;;2.18;100.00;98603.22;2083111;28;20278;-74
2022/02/25 03:18:15;;;;;;;32.58;22.65;;;;;;;2.12;100.00;98598.16;2083938;28;20179;-74
2022/02/25 03:19:17;;;;;;;32.92;24.42;;;;;;;2.10;100.00;98603.69;2083613;28;20202;-74
2022/02/25 03:20:23;;;;;;;31.77;23.15;;;;;;;2.05;100.00;98593.13;2083543;28;20208;-74
2022/02/25 03:21:26;;;;;;;34.20;22.80;;;;;;;2.02;100.00;98598.88;2083299;28;20215;-74
2022/02/25 03:22:30;;;;;;;32.90;23.27;;;;;;;2.03;100.00;98597.03;2083007;28;20204;-74
2022/02/25 03:23:34;;;;;;;40.70;24.50;;;;;;;2.03;100.00;98602.31;2083005;28;20565;-74
2022/02/25 03:24:35;;;;;;;37.20;23.73;;;;;;;1.97;100.00;98601.47;2083578;28;20537;-74
2022/02/25 03:25:39;;;;;;;44.85;23.80;;;;;;;1.94;100.00;98604.59;2082934;28;20210;-74
2022/02/25 03:26:46;;;;;;;35.83;24.55;;;;;;;1.94;100.00;98608.03;2075217;28;20200;-74
2022/02/25 03:27:48;;;;;;;39.67;24.23;;;;;;;1.89;100.00;98600.09;2083009;28;20246;-74
2022/02/25 03:28:49;;;;;;;32.50;23.92;;;;;;;1.89;100.00;98601.91;2083673;28;20188;-74
2022/02/25 03:29:52;;;;;;;36.97;24.77;;;;;;;1.85;100.00;98604.28;2082824;28;20669;-74
2022/02/25 03:30:55;;;;;;;36.42;23.65;;;;;;;1.81;100.00;98597.91;2083047;28;20742;-74
2022/02/25 03:31:59;;;;;;;36.78;22.85;;;;;;;1.75;100.00;98604.19;2083547;28;20204;-74
2022/02/25 03:33:02;;;;;;;20.33;17.92;;;;;;;1.80;100.00;98608.69;2082950;28;20192;-74
2022/02/25 03:34:05;;;;;;;24.55;18.90;;;;;;;1.78;100.00;98602.88;2083038;28;20210;-74
2022/02/25 03:35:08;;;;;;;34.95;23.30;;;;;;;1.78;100.00;98608.16;2082838;28;20203;-74
2022/02/25 03:36:13;;;;;;;37.00;23.20;;;;;;;1.77;100.00;98611.81;2082437;28;20199;-74
2022/02/25 03:37:16;;;;;;;29.67;21.23;;;;;;;1.73;100.00;98611.50;2082990;28;20777;-74
2022/02/25 03:38:23;;;;;;;38.88;24.90;;;;;;;1.74;100.00;98614.94;2074849;28;20239;-74
2022/02/25 03:39:24;;;;;;;38.03;25.73;;;;;;;1.70;100.00;98612.03;2082960;28;20196;-74
2022/02/25 03:40:28;;;;;;;44.20;25.98;;;;;;;1.69;100.00;98613.84;2090870;28;20222;-74
2022/02/25 03:41:29;;;;;;;37.72;24.67;;;;;;;1.66;100.00;98609.09;2082749;28;20203;-74
2022/02/25 03:42:33;;;;;;;41.27;25.07;;;;;;;1.67;100.00;98608.06;2082814;28;20202;-74
2022/02/25 03:43:37;;;;;;;40.22;26.15;;;;;;;1.73;100.00;98613.34;2082788;28;20541;-74
2022/02/25 03:44:39;;;;;;;40.70;27.75;;;;;;;1.74;100.00;98612.31;2075184;28;20636;-74
2022/02/25 03:45:42;;;;;;;45.35;28.48;;;;;;;1.77;100.00;98617.09;2082765;28;20200;-74
2022/02/25 03:46:43;;;;;;;40.10;26.88;;;;;;;1.74;100.00;98602.59;2083554;28;20745;-74
2022/02/25 03:47:46;;;;;;;42.03;27.57;;;;;;;1.72;100.00;98609.13;2083417;28;20594;-74
2022/02/25 03:48:47;;;;;;;35.92;23.60;;;;;;;1.72;100.00;98609.13;2083395;28;20271;-74
2022/02/25 03:49:51;;;;;;;41.87;26.47;;;;;;;1.78;100.00;98605.53;2082744;28;20708;-74
2022/02/25 03:50:56;;;;;;;39.63;26.60;;;;;;;1.82;100.00;98614.47;2082135;28;20210;-74
2022/02/25 03:52:01;;;;;;;42.55;25.48;;;;;;;1.81;100.00;98607.63;2082885;28;20543;-74
2022/02/25 03:53:03;;;;;;;34.95;24.70;;;;;;;1.81;100.00;98612.91;2082960;28;20203;-74
2022/02/25 03:54:08;;;;;;;43.13;26.80;;;;;;;1.78;100.00;98608.94;2082870;28;20210;-74
2022/02/25 03:55:11;;;;;;;38.92;25.25;;;;;;;1.78;100.00;98616.03;2082727;28;20196;-74
2022/02/25 03:56:15;;;;;;;46.00;26.52;;;;;;;1.76;100.00;98616.28;2083111;28;20196;-74
2022/02/25 03:57:17;;;;;;;24.95;20.25;;;;;;;1.78;100.00;98616.81;2083364;28;20187;-74
2022/02/25 03:58:23;;;;;;;29.33;21.55;;;;;;;1.79;100.00;98609.72;2083342;28;20697;-74
2022/02/25 03:59:27;;;;;;;42.47;27.35;;;;;;;1.80;100.00;98616.56;2083300;28;20245;-74
2022/02/25 04:00:32;;;;;;;29.67;23.17;;;;;;;1.85;100.00;98620.06;2083452;28;20207;-74
2022/02/25 04:01:37;;;;;;;25.40;21.55;;;;;;;1.92;100.00;98625.13;2083277;28;20639;-74
2022/02/25 04:02:40;;;;;;;29.35;21.58;;;;;;;2.05;100.00;98624.69;2090929;28;20194;-74
2022/02/25 04:03:41;;;;;;;22.80;19.40;;;;;;;2.19;100.00;98635.59;2082529;28;20223;-74
2022/02/25 04:04:47;;;;;;;27.92;20.23;;;;;;;2.31;100.00;98633.56;2082666;28;20696;-74
2022/02/25 04:05:50;;;;;;;24.55;20.38;;;;;;;2.33;100.00;98634.09;2083013;28;20214;-74
2022/02/25 04:06:51;;;;;;;31.60;21.67;;;;;;;2.39;100.00;98638.38;2082813;28;20309;-74
2022/02/25 04:07:55;;;;;;;21.35;18.73;;;;;;;2.45;100.00;98639.22;2082607;28;20282;-74
2022/02/25 04:08:59;;;;;;;24.95;20.63;;;;;;;2.49;100.00;98637.63;2082713;28;20188;-74
2022/02/25 04:10:01;;;;;;;23.02;19.92;;;;;;;2.51;100.00;98638.16;2090873;28;20199;-74
2022/02/25 04:11:03;;;;;;;25.08;18.08;;;;;;;2.55;100.00;98641.91;2090865;28;20211;-74
2022/02/25 04:12:07;;;;;;;26.70;19.52;;;;;;;2.64;100.00;98643.00;2090757;28;20206;-74
2022/02/25 04:13:10;;;;;;;34.13;23.25;;;;;;;2.64;100.00;98643.00;2082519;28;20674;-74
2022/02/25 04:14:19;;;;;;;20.42;17.70;;;;;;;2.68;100.00;98646.72;2082622;28;20204;-74
2022/02/25 04:15:19;;;;;;;19.67;17.48;;;;;;;2.70;100.00;98647.28;2082726;28;20238;-74
2022/02/25 04:16:23;;;;;;;20.10;17.67;;;;;;;2.82;100.00;98647.84;2083460;28;20257;-74
2022/02/25 04:17:25;;;;;;;23.73;19.83;;;;;;;2.92;100.00;98651.59;2081913;28;20203;-74
2022/02/25 04:18:29;;;;;;;20.90;18.90;;;;;;;3.02;100.00;98659.53;2082126;28;20192;-74
2022/02/25 04:19:32;;;;;;;24.52;19.73;;;;;;;3.09;100.00;98660.09;2083291;28;20246;-74
2022/02/25 04:20:37;;;;;;;23.88;19.95;;;;;;;3.19;100.00;98665.41;2083125;28;20569;-74
2022/02/25 04:21:38;;;;;;;21.05;19.05;;;;;;;3.38;100.00;98661.25;2082986;28;20243;-74
2022/02/25 04:22:40;;;;;;;20.63;18.73;;;;;;;3.44;100.00;98666.56;2083260;28;20183;-74
2022/02/25 04:23:43;;;;;;;21.85;19.88;;;;;;;3.45;100.00;98673.44;2083184;28;20192;-74
2022/02/25 04:24:49;;;;;;;20.27;18.38;;;;;;;3.52;100.00;98671.34;2082624;28;20210;-74
2022/02/25 04:25:50;;;;;;;19.88;17.98;;;;;;;3.72;100.00;98670.59;2075188;28;20209;-74
2022/02/25 04:26:59;;;;;;;20.45;18.35;;;;;;;3.92;100.00;98686.50;2082606;28;20191;-74
2022/02/25 04:28:01;;;;;;;19.75;17.85;;;;;;;4.07;100.00;98691.78;2082434;28;20203;-74
2022/02/25 04:29:06;;;;;;;20.60;18.73;;;;;;;4.17;100.00;98691.00;2082639;28;20207;-74
2022/02/25 04:30:09;;;;;;;19.73;17.83;;;;;;;4.24;100.00;98689.69;2082833;28;20243;-74
2022/02/25 04:31:14;;;;;;;20.17;18.15;;;;;;;4.31;100.00;98686.78;2090594;28;20290;-74
2022/02/25 04:32:15;;;;;;;18.08;16.55;;;;;;;4.42;100.00;98683.06;2090356;28;20664;-74
2022/02/25 04:33:20;;;;;;;19.07;17.33;;;;;;;4.61;100.00;98679.91;2083096;28;20551;-74
2022/02/25 04:34:24;;;;;;;24.75;17.25;;;;;;;4.79;100.00;98680.16;2083140;28;20550;-74
2022/02/25 04:35:28;;;;;;;19.85;17.67;;;;;;;4.87;100.00;98689.41;2083027;28;20712;-74
2022/02/25 04:36:33;;;;;;;19.90;17.92;;;;;;;4.86;99.79;98682.50;2082761;28;20601;-74
2022/02/25 04:37:36;;;;;;;19.08;17.35;;;;;;;4.89;99.39;98691.75;2083028;28;20282;-74
2022/02/25 04:38:39;;;;;;;18.55;17.05;;;;;;;5.00;97.59;98702.03;2082970;28;20653;-74
2022/02/25 04:39:40;;;;;;;18.83;16.90;;;;;;;5.21;95.97;98691.41;2083161;28;20196;-74
2022/02/25 04:40:42;;;;;;;19.50;17.02;;;;;;;5.23;95.32;98684.00;2083097;28;20696;-74
2022/02/25 04:41:48;;;;;;;18.75;17.05;;;;;;;5.28;94.24;98689.25;2083175;28;20539;-74
2022/02/25 04:42:49;;;;;;;19.33;17.00;;;;;;;5.35;93.81;98685.28;2083049;28;20175;-74
2022/02/25 04:43:53;;;;;;;19.10;17.27;;;;;;;5.50;92.27;98697.66;2082697;28;20294;-74
2022/02/25 04:44:57;;;;;;;19.05;17.40;;;;;;;5.60;90.53;98702.91;2082425;28;20195;-74
2022/02/25 04:46:03;;;;;;;19.05;16.65;;;;;;;5.65;90.25;98697.59;2082937;28;20254;-74
2022/02/25 04:47:07;;;;;;;17.80;16.08;;;;;;;5.71;89.35;98697.53;2082572;28;20207;-74
2022/02/25 04:48:10;;;;;;;17.77;16.48;;;;;;;5.71;89.26;98708.13;2074744;28;20246;-74
2022/02/25 04:49:12;;;;;;;18.63;17.17;;;;;;;5.76;88.54;98689.59;2074296;28;20251;-74
2022/02/25 04:50:14;;;;;;;19.42;17.42;;;;;;;5.88;87.94;98695.34;2082423;28;20184;-74
2022/02/25 04:51:16;;;;;;;18.88;17.27;;;;;;;5.90;87.37;98695.84;2082540;28;20234;-74
2022/02/25 04:52:20;;;;;;;18.85;17.35;;;;;;;5.88;87.04;98690.81;2083144;28;20191;-74